Strona główna
METAR-TAF:

METAR-TAF

Lotnisko :

Somerset Airport

Somerville, New Jersey, Stany Zjednoczone

Szerokość geograficzna: 40-37-26N, Długość geograficzna: 074-40-10W, wysokość: 32 m

Aktualna obserwacja pogody

Raport powstał 43 minut temu, godzina 08:53 UTC
Wiatr 11 kt od zachód w porywach dochodzący do 20 kt
Temperatura -2°C
Wilgotność 46%
Ciśnienie 1011 hPa
Widzialność: 16.1 km
bezchmurnie

METAR: KSMQ 280853Z AUTO 26011G20KT 10SM CLR M02/M12 A2984 RMK AO2 SLP106 T10171117 53002

czas: 04:36 (09:36 UTC)


TAF: brakujący

Obserwacja i prognoza pogody dla ponad 4000 lotnisk (raport METAR i TAF).

Dostępne stacje oznaczono żółtymi i czerwonymi punktami na mapie.

Najedź kursorem aby zobaczyć nazwę stacji.

Kliknij aby zobaczyć obserwacje i prognozy pogody.

Aby zmienić mapę: kliknij na zielony przycisk z czarnym krzyżykiem, aby powiększyć; na zielony przycisk z myślnikiem, aby pomniejszyć; na zielone strzałki, aby przejść do map sąsiednich.


METAR-TAF: